Terminal Aerodrome Forecast
Issued by NWS Buffalo, NY

Home | Current Version | Previous Version | Text Only | Print | Product List | Glossary On
Versions: 1 2 3 4 5 6 7 8 9 10 11 12 13 14 15 16 17 18 19 20 21 22 23 24 25 26
000
FTUS41 KBUF 270019 AAA
TAFBUF
TAF AMD
KBUF 270019Z 2700/2724 29014G24KT P6SM SCT040 SCT100
     FM270200 23012KT P6SM SCT040
     FM270600 23008KT 6SM -SHRA BKN040
     FM270900 23006KT 4SM -RA BR VCTS BKN025CB
     FM271200 24012KT P6SM VCSH BKN040
     FM271500 25014G24KT P6SM BKN040=

USA.gov is the U.S. government's official web portal to all federal, state and local government web resources and services.